»·PEaware :: FFT180 KASE-KSLC

FFT180 :: KASE-KSLC

FLIGHT INFORMATION

Flight Status: Arrived
Operator:
Frontier Airlines
More flights by this operator :: More flights under this callsign
Pilot: Etienne B. (28927)
Aircraft: AIRBUS A320
(A320)
More flights by this aircraft type
Origin: KASE Aspen-Pitkin Co/Sardy
United States
Destination: KSLC Salt Lake City Intl
United States
More flights between these airports :: More routes between these airports
Route: PITKN4 JNC HELPR LEEHY5
File this flight plan on PilotEdge
Remarks: RMK / SIMBRIEF
Altitude:
(Current/Filed)
36,000ft
Speed:
(Current/Filed)
445kts
Departed: 30-Apr-20 04:56 PM
Arrived: 30-Apr-20 05:55 PM
Distance/Time
Traveled:
253nm/0:58
Distance/Time
To Go:
Arrived

Flight Plot

Page will automatically refresh every two minutes.

Flight plan parsing failed; only flown route is shown


Map Options




Map Legend


Flown Route
Filed Route
Departure Airport
Arrival Airport
Navaid (VOR, NDB)
Fix

Horizontal Profiles

Position Reports

Time Latitude Longitude Heading Altitude Ground
Speed
30-Apr-20 16:39 39.219487 -106.865121 82 7843ft 0kts
30-Apr-20 16:40 39.219487 -106.865121 82 7843ft 0kts
30-Apr-20 16:41 39.219487 -106.865121 82 7843ft 0kts
30-Apr-20 16:42 39.219487 -106.865121 82 7843ft 0kts
30-Apr-20 16:43 39.219487 -106.865121 82 7843ft 0kts
30-Apr-20 16:44 39.219487 -106.865121 82 7843ft 0kts
30-Apr-20 16:45 39.219487 -106.865121 82 7843ft 0kts
30-Apr-20 16:46 39.219487 -106.865121 82 7843ft 0kts
30-Apr-20 16:47 39.219455 -106.865668 106 7843ft 2kts
30-Apr-20 16:48 39.219769 -106.866071 161 7843ft 0kts
30-Apr-20 16:49 39.219769 -106.866071 161 7843ft 0kts
30-Apr-20 16:50 39.219258 -106.865830 159 7843ft 3kts
30-Apr-20 16:51 39.218223 -106.865332 159 7843ft 8kts
30-Apr-20 16:52 39.215121 -106.863845 159 7843ft 13kts
30-Apr-20 16:53 39.212456 -106.862598 167 7843ft 6kts
30-Apr-20 16:54 39.212012 -106.862684 212 7843ft 10kts
30-Apr-20 16:55 39.221492 -106.868171 340 7843ft 127kts
30-Apr-20 16:56 39.266503 -106.882359 346 9819ft 179kts
30-Apr-20 16:57 39.303353 -106.935338 294 11710ft 234kts
30-Apr-20 16:58 39.336133 -107.022179 291 13003ft 304kts
30-Apr-20 16:59 39.377763 -107.129972 287 13991ft 361kts
30-Apr-20 17:00 39.369311 -107.260058 253 14851ft 385kts
30-Apr-20 17:01 39.342603 -107.395529 254 16433ft 393kts
30-Apr-20 17:02 39.315452 -107.533577 254 17863ft 399kts
30-Apr-20 17:03 39.287808 -107.673342 253 19207ft 405kts
30-Apr-20 17:04 39.259597 -107.814999 253 20491ft 410kts
30-Apr-20 17:05 39.230913 -107.958038 253 21670ft 415kts
30-Apr-20 17:06 39.201714 -108.102640 253 22777ft 419kts
30-Apr-20 17:07 39.172004 -108.248745 253 23826ft 424kts
30-Apr-20 17:08 39.141828 -108.396110 253 24784ft 428kts
30-Apr-20 17:09 39.111220 -108.544535 254 25607ft 431kts
30-Apr-20 17:10 39.080384 -108.693010 253 26602ft 428kts
30-Apr-20 17:11 39.049653 -108.840313 253 27741ft 423kts
30-Apr-20 17:12 39.019465 -108.985664 253 28804ft 419kts
30-Apr-20 17:13 38.989061 -109.129793 253 29693ft 418kts
30-Apr-20 17:14 38.985043 -109.276460 287 30642ft 428kts
30-Apr-20 17:15 39.055564 -109.402729 302 31496ft 439kts
30-Apr-20 17:16 39.131135 -109.524971 302 32346ft 435kts
30-Apr-20 17:17 39.206251 -109.646777 302 33106ft 433kts
30-Apr-20 17:18 39.280587 -109.767744 301 33911ft 429kts
30-Apr-20 17:19 39.354419 -109.888333 301 34590ft 427kts
30-Apr-20 17:20 39.427472 -110.008116 301 35209ft 425kts
30-Apr-20 17:21 39.500475 -110.128261 301 35742ft 424kts
30-Apr-20 17:22 39.572924 -110.247944 301 35994ft 423kts
30-Apr-20 17:23 39.645473 -110.368254 301 35996ft 423kts
30-Apr-20 17:24 39.717643 -110.488379 301 35251ft 422kts
30-Apr-20 17:25 39.779244 -110.616091 290 34283ft 416kts
30-Apr-20 17:26 39.830850 -110.751315 290 33329ft 419kts
30-Apr-20 17:27 39.882756 -110.887860 290 32360ft 424kts
30-Apr-20 17:28 39.934746 -111.025046 291 30128ft 428kts
30-Apr-20 17:29 39.987823 -111.168277 293 27120ft 447kts
30-Apr-20 17:30 40.043244 -111.313893 293 24193ft 452kts
30-Apr-20 17:31 40.097256 -111.460315 293 21255ft 443kts
30-Apr-20 17:32 40.147732 -111.598225 293 19075ft 409kts
30-Apr-20 17:33 40.196537 -111.731792 292 19025ft 423kts
30-Apr-20 17:34 40.246745 -111.869550 293 17832ft 414kts
30-Apr-20 17:35 40.314246 -111.984806 329 15760ft 399kts
30-Apr-20 17:36 40.411357 -112.034866 345 14930ft 356kts
30-Apr-20 17:37 40.506017 -112.045623 350 13733ft 335kts
30-Apr-20 17:38 40.598225 -112.061986 348 12321ft 345kts
30-Apr-20 17:39 40.684891 -112.078025 348 11028ft 297kts
30-Apr-20 17:40 40.764224 -112.086792 354 10996ft 267kts
30-Apr-20 17:41 40.835488 -112.088703 354 11002ft 255kts
30-Apr-20 17:42 40.905539 -112.096339 344 10815ft 248kts
30-Apr-20 17:43 40.973316 -112.114521 344 9594ft 249kts
30-Apr-20 17:44 41.041155 -112.132852 344 8428ft 249kts
30-Apr-20 17:45 41.109441 -112.149430 3 8015ft 255kts
30-Apr-20 17:46 41.139598 -112.076949 120 8023ft 259kts
30-Apr-20 17:47 41.082774 -112.032118 177 8023ft 240kts
30-Apr-20 17:48 41.017429 -112.023626 179 8025ft 223kts
30-Apr-20 17:49 40.959162 -112.016898 179 7487ft 193kts
30-Apr-20 17:50 40.909317 -112.011239 179 6284ft 160kts
30-Apr-20 17:51 40.866510 -112.005941 179 5428ft 161kts
30-Apr-20 17:52 40.823921 -112.001100 178 4621ft 155kts
30-Apr-20 17:53 40.788085 -111.997010 175 4236ft 44kts
30-Apr-20 17:54 40.784578 -111.995435 127 4236ft 5kts
30-Apr-20 17:55 40.784778 -111.993485 0 4236ft 9kts
30-Apr-20 17:56 40.787735 -111.993858 352 4236ft 9kts
30-Apr-20 17:57 40.790591 -111.994095 12 4236ft 10kts
30-Apr-20 17:58 40.791135 -111.991785 84 4236ft 8kts
30-Apr-20 17:59 40.791413 -111.986674 89 4236ft 19kts
30-Apr-20 18:00 40.789280 -111.984907 199 4236ft 0kts

Navigation Log

Ident Type
Flight plan parsing failed, navigation log unavailable